createdAt,value
2019-06-07T00:00:36.654Z,67.22
2019-06-07T00:01:13.838Z,67.22
2019-06-07T00:02:13.287Z,67.35
2019-06-07T00:03:23.986Z,67.65
2019-06-07T00:04:14.157Z,67.65
2019-06-07T00:05:14.996Z,67.65
2019-06-07T00:06:19.604Z,67.55
2019-06-07T00:07:14.976Z,67.55
2019-06-07T00:08:21.319Z,67.35
2019-06-07T00:09:15.340Z,67.55
2019-06-07T00:10:36.050Z,67.14
2019-06-07T00:11:15.670Z,67.35
2019-06-07T00:12:14.917Z,67.35
2019-06-07T00:13:15.205Z,67.14
2019-06-07T00:14:15.820Z,67.45
2019-06-07T00:15:20.011Z,66.95
2019-06-07T00:16:14.957Z,67.14
2019-06-07T00:17:15.364Z,66.75
2019-06-07T00:18:15.085Z,66.85
2019-06-07T00:19:15.931Z,66.75
2019-06-07T00:20:15.597Z,66.64
2019-06-07T00:21:14.439Z,66.95
2019-06-07T00:22:18.343Z,66.95
2019-06-07T00:23:15.878Z,66.85
2019-06-07T00:24:15.900Z,66.75
2019-06-07T00:25:15.127Z,66.55
2019-06-07T00:26:14.005Z,66.75
2019-06-07T00:27:12.895Z,66.85
2019-06-07T00:28:13.269Z,66.75
2019-06-07T00:29:15.369Z,66.85
2019-06-07T00:30:35.927Z,66.75
2019-06-07T00:31:14.914Z,66.95
2019-06-07T00:32:14.403Z,67.05
2019-06-07T00:33:16.624Z,66.85
2019-06-07T00:34:13.950Z,66.75
2019-06-07T00:35:14.749Z,66.95
2019-06-07T00:36:14.685Z,67.14
2019-06-07T00:37:12.740Z,67.14
2019-06-07T00:38:12.052Z,67.14
2019-06-07T00:39:14.460Z,67.05
2019-06-07T00:40:17.966Z,67.05
2019-06-07T00:41:22.681Z,66.85
2019-06-07T00:42:16.646Z,67.14
2019-06-07T00:43:16.357Z,67.25
2019-06-07T00:44:12.506Z,67.38
2019-06-07T00:45:14.037Z,67.38
2019-06-07T00:46:15.730Z,67.38
2019-06-07T00:47:13.060Z,67.48
2019-06-07T00:48:21.283Z,67.48
2019-06-07T00:49:29.013Z,67.48
2019-06-07T00:50:13.759Z,67.48
2019-06-07T00:51:13.984Z,67.58
2019-06-07T00:53:07.040Z,67.28
2019-06-07T00:53:18.244Z,67.38
2019-06-07T00:54:15.013Z,67.48
2019-06-07T00:55:15.212Z,67.68
2019-06-07T00:56:11.867Z,67.88
2019-06-07T00:57:12.401Z,67.58
2019-06-07T00:58:13.577Z,67.38
2019-06-07T00:59:14.701Z,67.38
2019-06-07T01:00:14.760Z,67.38
2019-06-07T01:01:13.116Z,67.58
2019-06-07T01:02:14.645Z,67.48
2019-06-07T01:03:12.686Z,67.48
2019-06-07T01:04:13.131Z,67.58
2019-06-07T01:05:15.411Z,67.78
2019-06-07T01:06:12.799Z,67.58
2019-06-07T01:07:13.223Z,67.58
2019-06-07T01:08:14.379Z,67.78
2019-06-07T01:09:12.817Z,67.68
2019-06-07T01:10:13.663Z,67.68
2019-06-07T01:11:11.708Z,67.68
2019-06-07T01:12:24.594Z,67.78
2019-06-07T01:13:11.675Z,68.08
2019-06-07T01:14:11.643Z,67.78
2019-06-07T01:15:11.667Z,67.98
2019-06-07T01:16:11.645Z,68.08
2019-06-07T01:17:23.390Z,67.88
2019-06-07T01:18:36.143Z,68.08
2019-06-07T01:19:13.800Z,68.18
2019-06-07T01:20:11.604Z,68.08
2019-06-07T01:21:11.644Z,67.98
2019-06-07T01:22:11.571Z,67.88
2019-06-07T01:23:51.641Z,68.08
2019-06-07T01:24:12.786Z,68.18
2019-06-07T01:25:11.541Z,68.08
2019-06-07T01:26:11.579Z,68.08
2019-06-07T01:27:11.539Z,68.21
2019-06-07T01:28:11.502Z,67.98
2019-06-07T01:29:11.518Z,68.21
2019-06-07T01:30:11.481Z,68.21
2019-06-07T01:31:11.470Z,68.29
2019-06-07T01:32:11.472Z,68.38
2019-06-07T01:33:11.473Z,68.52
2019-06-07T01:34:11.457Z,68.18
2019-06-07T01:35:11.443Z,67.98
2019-06-07T01:36:11.646Z,67.98
2019-06-07T01:37:11.414Z,67.88
2019-06-07T01:38:11.400Z,68.18
2019-06-07T01:39:11.444Z,68.29
2019-06-07T01:40:11.397Z,68.21
2019-06-07T01:41:11.364Z,68.62
2019-06-07T01:42:11.353Z,68.72
2019-06-07T01:43:27.062Z,68.62
2019-06-07T01:44:12.390Z,68.92
2019-06-07T01:45:11.316Z,68.72
2019-06-07T01:46:11.308Z,68.82
2019-06-07T01:47:11.348Z,68.82
2019-06-07T01:48:11.289Z,69.02
2019-06-07T01:49:11.276Z,68.62
2019-06-07T01:50:11.300Z,68.82
2019-06-07T01:51:11.256Z,68.82
2019-06-07T01:52:11.257Z,68.52
2019-06-07T01:53:11.258Z,68.82
2019-06-07T01:54:49.380Z,68.72
2019-06-07T01:55:12.249Z,68.41
2019-06-07T01:56:11.209Z,68.41
2019-06-07T01:57:29.451Z,68.62
2019-06-07T01:58:12.200Z,68.62
2019-06-07T01:59:11.177Z,68.52
2019-06-07T02:00:11.168Z,68.32
2019-06-07T02:01:11.166Z,68.41
2019-06-07T02:02:11.161Z,68.72
2019-06-07T02:03:11.148Z,68.62
2019-06-07T02:04:11.106Z,68.12
2019-06-07T02:05:11.118Z,68.32
2019-06-07T02:06:11.138Z,68.32
2019-06-07T02:07:11.100Z,68.72
2019-06-07T02:08:11.088Z,68.41
2019-06-07T02:09:11.066Z,68.32
2019-06-07T02:10:11.059Z,68.62
2019-06-07T02:11:11.048Z,68.62
2019-06-07T02:12:25.718Z,68.82
2019-06-07T02:13:12.015Z,69.02
2019-06-07T02:14:25.313Z,68.62
2019-06-07T02:15:11.000Z,68.62
2019-06-07T02:16:11.006Z,68.52
2019-06-07T02:17:10.971Z,68.82
2019-06-07T02:18:10.983Z,68.92
2019-06-07T02:19:10.970Z,68.72
2019-06-07T02:20:10.957Z,68.72
2019-06-07T02:21:10.955Z,69.02
2019-06-07T02:22:10.935Z,68.82
2019-06-07T02:23:10.935Z,68.82
2019-06-07T02:24:10.921Z,68.82
2019-06-07T02:25:37.391Z,68.62
2019-06-07T02:26:11.880Z,68.62
2019-06-07T02:27:10.923Z,68.82
2019-06-07T02:28:27.218Z,68.72
2019-06-07T02:29:11.851Z,68.72
2019-06-07T02:30:36.899Z,68.92
2019-06-07T02:31:11.836Z,68.72
2019-06-07T02:32:10.813Z,68.92
2019-06-07T02:33:10.821Z,68.72
2019-06-07T02:34:10.852Z,68.92
2019-06-07T02:35:10.784Z,68.82
2019-06-07T02:36:10.794Z,69.02
2019-06-07T02:37:10.772Z,69.02
2019-06-07T02:38:10.784Z,69.12
2019-06-07T02:39:10.796Z,69.32
2019-06-07T02:40:10.743Z,69.42
2019-06-07T02:41:10.733Z,69.32
2019-06-07T02:42:10.701Z,69.22
2019-06-07T02:43:10.720Z,69.12
2019-06-07T02:44:10.704Z,69.22
2019-06-07T02:45:24.215Z,69.22
2019-06-07T02:46:25.419Z,69.22
2019-06-07T02:47:11.652Z,69.22
2019-06-07T02:48:10.655Z,68.79
2019-06-07T02:49:10.644Z,68.88
2019-06-07T02:50:10.660Z,68.88
2019-06-07T02:51:10.624Z,68.79
2019-06-07T02:52:10.624Z,69.09
2019-06-07T02:53:10.602Z,68.88
2019-06-07T02:54:10.604Z,68.88
2019-06-07T02:55:10.621Z,68.88
2019-06-07T02:57:11.576Z,69.09
2019-06-07T02:58:10.546Z,68.79
2019-06-07T02:59:10.540Z,68.59
2019-06-07T03:00:40.653Z,68.68
2019-06-07T03:01:11.520Z,68.79
2019-06-07T03:02:10.502Z,68.79
2019-06-07T03:03:10.497Z,68.55
2019-06-07T03:04:10.513Z,68.65
2019-06-07T03:05:10.477Z,68.55
2019-06-07T03:06:10.451Z,68.65
2019-06-07T03:07:10.493Z,68.45
2019-06-07T03:08:10.431Z,68.65
2019-06-07T03:09:10.410Z,68.65
2019-06-07T03:10:10.542Z,68.85
2019-06-07T03:11:10.400Z,68.76
2019-06-07T03:12:10.391Z,68.95
2019-06-07T03:13:10.400Z,68.65
2019-06-07T03:14:10.372Z,68.65
2019-06-07T03:15:10.361Z,68.45
2019-06-07T03:16:22.649Z,68.35
2019-06-07T03:17:10.328Z,68.55
2019-06-07T03:18:10.320Z,68.45
2019-06-07T03:19:10.317Z,68.35
2019-06-07T03:20:10.297Z,68.15
2019-06-07T03:21:10.289Z,68.25
2019-06-07T03:22:10.286Z,68.05
2019-06-07T03:23:10.288Z,68.15
2019-06-07T03:24:10.259Z,68.25
2019-06-07T03:25:10.250Z,68.32
2019-06-07T03:26:10.270Z,68.32
2019-06-07T03:27:34.071Z,68.22
2019-06-07T03:28:11.263Z,68.12
2019-06-07T03:29:10.204Z,68.22
2019-06-07T03:30:36.060Z,68.32
2019-06-07T03:31:11.206Z,68.02
2019-06-07T03:32:10.181Z,67.92
2019-06-07T03:33:10.216Z,68.12
2019-06-07T03:34:10.162Z,68.02
2019-06-07T03:35:10.138Z,68.02
2019-06-07T03:36:23.288Z,68.22
2019-06-07T03:37:11.139Z,68.12
2019-06-07T03:38:10.106Z,67.92
2019-06-07T03:39:10.140Z,67.92
2019-06-07T03:40:10.088Z,67.88
2019-06-07T03:41:10.089Z,67.69
2019-06-07T03:42:10.082Z,67.88
2019-06-07T03:43:10.055Z,67.58
2019-06-07T03:44:10.046Z,67.58
2019-06-07T03:45:10.043Z,67.69
2019-06-07T03:46:10.027Z,67.49
2019-06-07T03:47:19.893Z,67.49
2019-06-07T03:48:10.016Z,67.29
2019-06-07T03:49:10.025Z,67.58
2019-06-07T03:50:09.995Z,67.35
2019-06-07T03:51:24.055Z,67.35
2019-06-07T03:52:10.953Z,67.15
2019-06-07T03:53:09.943Z,67.15
2019-06-07T03:54:09.943Z,67.15
2019-06-07T03:55:09.966Z,67.25
2019-06-07T03:56:10.246Z,67.05
2019-06-07T03:57:09.911Z,67.05
2019-06-07T03:59:10.900Z,66.85
2019-06-07T04:00:09.884Z,66.65
2019-06-07T04:01:09.861Z,66.52
2019-06-07T04:02:09.893Z,66.82
2019-06-07T04:03:09.842Z,67.12
2019-06-07T04:04:09.827Z,66.72
2019-06-07T04:05:09.812Z,67.22
2019-06-07T04:06:09.818Z,67.22
2019-06-07T04:07:09.806Z,66.92
2019-06-07T04:08:09.822Z,67.12
2019-06-07T04:09:09.795Z,66.72
2019-06-07T04:10:09.779Z,66.82
2019-06-07T04:11:09.747Z,66.82
2019-06-07T04:12:09.748Z,66.62
2019-06-07T04:13:09.743Z,66.52
2019-06-07T04:14:09.723Z,66.52
2019-06-07T04:15:09.717Z,66.78
2019-06-07T04:16:09.724Z,66.49
2019-06-07T04:17:09.678Z,66.39
2019-06-07T04:18:21.539Z,66.59
2019-06-07T04:19:09.655Z,66.59
2019-06-07T04:20:09.675Z,66.19
2019-06-07T04:21:09.647Z,66.28
2019-06-07T04:22:09.682Z,66.39
2019-06-07T04:23:27.347Z,66.39
2019-06-07T04:24:10.615Z,66.16
2019-06-07T04:25:09.598Z,66.05
2019-06-07T04:26:09.590Z,66.36
2019-06-07T04:27:09.597Z,66.55
2019-06-07T04:28:09.589Z,66.75
2019-06-07T04:29:32.320Z,65.95
2019-06-07T04:30:10.536Z,66.75
2019-06-07T04:31:09.576Z,66.66
2019-06-07T04:32:09.518Z,66.55
2019-06-07T04:33:09.517Z,66.22
2019-06-07T04:34:09.507Z,65.83
2019-06-07T04:35:09.529Z,66.22
2019-06-07T04:36:09.497Z,65.83
2019-06-07T04:37:09.466Z,65.92
2019-06-07T04:38:09.446Z,65.83
2019-06-07T04:39:09.436Z,65.92
2019-06-07T04:40:09.441Z,65.92
2019-06-07T04:41:09.457Z,66.02
2019-06-07T04:42:09.426Z,65.52
2019-06-07T04:43:09.427Z,65.49
2019-06-07T04:44:09.386Z,65.49
2019-06-07T04:45:32.506Z,65.89
2019-06-07T04:46:10.378Z,65.19
2019-06-07T04:47:09.374Z,65.19
2019-06-07T04:48:09.364Z,65.29
2019-06-07T04:49:20.996Z,65.29
2019-06-07T04:50:09.348Z,65.49
2019-06-07T04:51:09.397Z,65.26
2019-06-07T04:52:09.305Z,65.06
2019-06-07T04:53:09.306Z,65.36
2019-06-07T04:54:09.295Z,64.86
2019-06-07T04:55:09.270Z,64.66
2019-06-07T04:56:09.267Z,64.96
2019-06-07T04:57:09.265Z,64.86
2019-06-07T04:58:09.276Z,64.76
2019-06-07T04:59:09.233Z,64.46
2019-06-07T05:00:46.197Z,64.43
2019-06-07T05:01:26.388Z,65.23
2019-06-07T05:02:10.247Z,64.93
2019-06-07T05:03:09.215Z,64.73
2019-06-07T05:04:09.194Z,64.83
2019-06-07T05:05:09.187Z,64.93
2019-06-07T05:06:09.179Z,64.53
2019-06-07T05:07:09.198Z,64.30
2019-06-07T05:08:26.974Z,64.50
2019-06-07T05:09:10.147Z,64.70
2019-06-07T05:10:09.136Z,64.50
2019-06-07T05:11:09.103Z,64.70
2019-06-07T05:12:09.093Z,64.80
2019-06-07T05:13:09.086Z,64.40
2019-06-07T05:14:09.084Z,64.50
2019-06-07T05:15:09.062Z,64.70
2019-06-07T05:16:09.066Z,64.47
2019-06-07T05:17:09.069Z,64.47
2019-06-07T05:18:09.060Z,64.17
2019-06-07T05:19:09.047Z,64.37
2019-06-07T05:20:19.344Z,63.97
2019-06-07T05:21:09.005Z,64.87
2019-06-07T05:22:08.987Z,64.77
2019-06-07T05:23:08.977Z,64.77
2019-06-07T05:24:10.523Z,64.54
2019-06-07T05:25:08.973Z,64.34
2019-06-07T05:26:08.974Z,64.34
2019-06-07T05:27:08.947Z,63.94
2019-06-07T05:28:08.914Z,64.34
2019-06-07T05:29:08.914Z,64.24
2019-06-07T05:30:36.112Z,64.54
2019-06-07T05:31:09.892Z,64.54
2019-06-07T05:32:08.883Z,64.34
2019-06-07T05:33:08.877Z,64.64
2019-06-07T05:34:08.862Z,64.34
2019-06-07T05:35:08.924Z,64.94
2019-06-07T05:36:08.836Z,64.34
2019-06-07T05:37:11.972Z,64.51
2019-06-07T05:38:08.826Z,64.51
2019-06-07T05:39:08.849Z,64.90
2019-06-07T05:40:08.809Z,64.21
2019-06-07T05:41:08.803Z,64.61
2019-06-07T05:42:08.778Z,64.41
2019-06-07T05:43:08.766Z,64.51
2019-06-07T05:44:12.716Z,64.58
2019-06-07T05:45:08.767Z,64.67
2019-06-07T05:46:08.731Z,64.18
2019-06-07T05:47:08.733Z,64.28
2019-06-07T05:48:08.768Z,64.37
2019-06-07T05:49:08.703Z,64.37
2019-06-07T05:50:38.022Z,64.18
2019-06-07T05:51:18.781Z,64.18
2019-06-07T05:52:08.704Z,64.37
2019-06-07T05:53:08.653Z,64.28
2019-06-07T05:54:08.642Z,64.48
2019-06-07T05:55:08.644Z,64.48
2019-06-07T05:56:08.888Z,64.25
2019-06-07T05:57:08.601Z,63.95
2019-06-07T05:58:08.601Z,64.45
2019-06-07T05:59:08.592Z,64.94
2019-06-07T06:00:08.584Z,64.45
2019-06-07T06:01:42.374Z,64.25
2019-06-07T06:02:22.309Z,63.65
2019-06-07T06:03:09.609Z,63.85
2019-06-07T06:04:08.559Z,63.92
2019-06-07T06:05:08.540Z,64.81
2019-06-07T06:06:08.525Z,64.42
2019-06-07T06:07:08.521Z,64.22
2019-06-07T06:08:08.535Z,64.01
2019-06-07T06:09:13.821Z,64.18
2019-06-07T06:10:09.469Z,63.29
2019-06-07T06:11:08.473Z,63.19
2019-06-07T06:12:08.456Z,63.09
2019-06-07T06:13:08.453Z,62.79
2019-06-07T06:14:08.651Z,63.49
2019-06-07T06:15:08.443Z,63.16
2019-06-07T06:16:08.403Z,62.96
2019-06-07T06:17:08.415Z,62.96
2019-06-07T06:18:08.393Z,63.06
2019-06-07T06:19:08.381Z,62.66
2019-06-07T06:21:18.071Z,63.16
2019-06-07T06:23:23.326Z,63.03
2019-06-07T06:24:23.343Z,63.03
2019-06-07T06:25:33.151Z,63.13
2019-06-07T06:26:24.335Z,63.13
2019-06-07T06:28:02.573Z,63.03
2019-06-07T06:28:24.277Z,63.63
2019-06-07T06:29:23.267Z,62.83
2019-06-07T06:30:23.274Z,62.30
2019-06-07T06:31:23.248Z,62.10
2019-06-07T06:32:41.955Z,62.40
2019-06-07T06:33:33.769Z,61.11
2019-06-07T06:34:24.217Z,61.41
2019-06-07T06:35:23.200Z,61.51
2019-06-07T06:36:23.313Z,61.98
2019-06-07T06:37:23.201Z,61.68
2019-06-07T06:38:23.171Z,61.48
2019-06-07T06:39:23.157Z,61.08
2019-06-07T06:40:23.169Z,61.38
2019-06-07T06:41:23.153Z,61.28
2019-06-07T06:42:23.137Z,61.48
2019-06-07T06:43:23.116Z,60.58
2019-06-07T06:44:23.130Z,60.78
2019-06-07T06:45:23.101Z,61.45
2019-06-07T06:46:38.310Z,61.05
2019-06-07T06:47:24.091Z,61.35
2019-06-07T06:48:23.105Z,61.15
2019-06-07T06:49:23.079Z,61.55
2019-06-07T06:50:23.083Z,61.25
2019-06-07T06:51:23.047Z,60.96
2019-06-07T06:52:23.093Z,60.75
2019-06-07T06:54:46.630Z,60.93
2019-06-07T06:55:43.968Z,60.72
2019-06-07T06:56:45.140Z,60.33
2019-06-07T06:57:43.411Z,60.53
2019-06-07T06:59:21.977Z,60.89
2019-06-07T06:59:45.088Z,60.89
2019-06-07T07:00:50.324Z,60.20
2019-06-07T07:01:44.900Z,60.40
2019-06-07T07:03:35.066Z,60.00
2019-06-07T07:04:03.577Z,60.00
2019-06-07T07:04:44.003Z,59.70
2019-06-07T07:05:43.433Z,59.91
2019-06-07T07:06:42.744Z,58.91
2019-06-07T07:07:42.685Z,58.91
2019-06-07T07:08:43.653Z,59.21
2019-06-07T07:09:45.573Z,58.42
2019-06-07T07:10:43.256Z,58.42
2019-06-07T07:11:59.282Z,59.01
2019-06-07T07:12:43.116Z,58.51
2019-06-07T07:13:44.479Z,57.62
2019-06-07T07:14:45.579Z,57.62
2019-06-07T07:15:43.308Z,58.48
2019-06-07T07:16:42.871Z,57.89
2019-06-07T07:17:53.837Z,58.09
2019-06-07T07:18:44.274Z,57.40
2019-06-07T07:19:42.585Z,57.79
2019-06-07T07:20:43.611Z,58.29
2019-06-07T07:21:42.082Z,57.69
2019-06-07T07:22:42.763Z,56.30
2019-06-07T07:24:08.246Z,56.51
2019-06-07T07:25:59.303Z,57.46
2019-06-07T07:26:58.311Z,56.77
2019-06-07T07:27:55.403Z,56.97
2019-06-07T07:28:57.629Z,57.17
2019-06-07T07:30:34.383Z,57.97
2019-06-07T07:30:57.164Z,57.57
2019-06-07T07:31:56.479Z,57.46
2019-06-07T07:32:59.330Z,57.44
2019-06-07T07:35:00.241Z,56.05
2019-06-07T07:37:59.652Z,56.74
2019-06-07T07:40:01.716Z,54.77
2019-06-07T07:42:18.097Z,55.53
2019-06-07T07:44:05.269Z,55.53
2019-06-07T07:45:59.161Z,56.13
2019-06-07T07:48:08.266Z,55.63
2019-06-07T07:49:58.108Z,55.24
2019-06-07T07:51:00.073Z,56.32
2019-06-07T07:53:00.007Z,55.90
2019-06-07T07:54:57.793Z,55.30
2019-06-07T07:56:01.491Z,55.30
2019-06-07T07:56:56.150Z,55.01
2019-06-07T07:58:00.994Z,54.71
2019-06-07T08:00:13.237Z,54.81
2019-06-07T08:01:56.005Z,54.69
2019-06-07T08:02:58.638Z,54.39
2019-06-07T08:03:56.552Z,54.59
2019-06-07T08:05:20.202Z,53.40
2019-06-07T08:06:55.987Z,55.08
2019-06-07T08:07:59.795Z,54.19
2019-06-07T08:09:59.502Z,54.39
2019-06-07T08:11:59.950Z,54.39
2019-06-07T08:13:57.235Z,54.79
2019-06-07T08:14:58.619Z,54.69
2019-06-07T08:16:56.446Z,54.39
2019-06-07T08:17:58.105Z,54.10
2019-06-07T08:19:55.052Z,54.39
2019-06-07T08:21:17.218Z,54.19
2019-06-07T08:22:57.793Z,54.76
2019-06-07T08:24:55.997Z,53.57
2019-06-07T08:27:24.614Z,54.46
2019-06-07T08:27:56.869Z,54.17
2019-06-07T08:28:58.436Z,55.94
2019-06-07T08:30:15.647Z,54.17
2019-06-07T08:31:02.310Z,53.45
2019-06-07T08:31:57.608Z,53.15
2019-06-07T08:32:58.783Z,53.35
2019-06-07T08:33:58.062Z,53.15
2019-06-07T08:34:59.819Z,54.04
2019-06-07T08:36:10.382Z,51.77
2019-06-07T08:36:58.397Z,51.97
2019-06-07T08:38:21.514Z,51.35
2019-06-07T08:39:00.528Z,51.84
2019-06-07T08:39:57.557Z,49.96
2019-06-07T08:41:00.783Z,50.66
2019-06-07T08:42:14.359Z,49.96
2019-06-07T08:43:15.240Z,49.48
2019-06-07T08:44:57.113Z,50.07
2019-06-07T08:47:10.252Z,47.60
2019-06-07T08:48:55.975Z,47.77
2019-06-07T08:50:55.338Z,46.29
2019-06-07T08:51:57.736Z,45.70
2019-06-07T08:54:15.967Z,44.42
2019-06-07T08:54:57.020Z,43.92
2019-06-07T08:55:58.757Z,43.52
2019-06-07T08:57:06.648Z,45.01
2019-06-07T08:58:08.409Z,44.71
2019-06-07T08:58:56.917Z,44.12
2019-06-07T08:59:56.548Z,43.92
2019-06-07T09:00:58.079Z,44.61
2019-06-07T09:01:57.815Z,44.20
2019-06-07T09:02:55.652Z,44.59
2019-06-07T09:03:59.831Z,43.60
2019-06-07T09:04:57.022Z,44.69
2019-06-07T09:05:57.190Z,43.70
2019-06-07T09:07:07.280Z,43.31
2019-06-07T09:08:22.265Z,44.79
2019-06-07T09:08:56.111Z,42.74
2019-06-07T09:09:58.519Z,42.61
2019-06-07T09:10:56.487Z,41.53
2019-06-07T09:11:54.704Z,41.04
2019-06-07T09:12:59.185Z,42.32
2019-06-07T09:13:57.225Z,41.81
2019-06-07T09:15:09.356Z,39.94
2019-06-07T09:15:56.045Z,40.62
2019-06-07T09:16:55.366Z,41.31
2019-06-07T09:18:35.030Z,41.51
2019-06-07T09:18:56.073Z,41.43
2019-06-07T09:19:54.148Z,41.31
2019-06-07T09:20:53.698Z,40.94
2019-06-07T09:21:54.595Z,40.94
2019-06-07T09:22:59.023Z,40.53
2019-06-07T09:23:54.693Z,40.33
2019-06-07T09:24:59.172Z,39.54
2019-06-07T09:26:02.072Z,40.33
2019-06-07T09:26:55.847Z,40.92
2019-06-07T09:27:53.393Z,41.02
2019-06-07T09:29:53.369Z,40.92
2019-06-07T09:30:53.359Z,41.61
2019-06-07T09:31:53.958Z,41.00
2019-06-07T09:32:53.342Z,42.58
2019-06-07T09:33:53.342Z,42.28
2019-06-07T09:34:53.323Z,41.09
2019-06-07T09:35:53.301Z,40.51
2019-06-07T09:36:53.299Z,40.29
2019-06-07T09:38:07.699Z,39.60
2019-06-07T09:38:54.279Z,40.98
2019-06-07T09:39:53.270Z,38.91
2019-06-07T09:40:53.262Z,39.70
2019-06-07T09:41:53.253Z,40.08
2019-06-07T09:43:38.201Z,40.37
2019-06-07T09:44:05.483Z,40.66
2019-06-07T09:44:54.241Z,41.77
2019-06-07T09:45:53.216Z,41.06
2019-06-07T09:47:14.108Z,39.89
2019-06-07T09:47:54.221Z,41.17
2019-06-07T09:49:54.164Z,39.60
2019-06-07T09:50:53.183Z,40.29
2019-06-07T09:51:53.162Z,40.19
2019-06-07T09:52:58.518Z,40.69
2019-06-07T09:53:54.143Z,39.97
2019-06-07T09:55:54.115Z,40.47
2019-06-07T09:56:53.099Z,39.68
2019-06-07T09:57:53.102Z,40.08
2019-06-07T09:58:54.229Z,40.76
2019-06-07T10:00:33.576Z,40.96
2019-06-07T10:00:54.054Z,39.87
2019-06-07T10:01:53.045Z,40.27
2019-06-07T10:02:53.042Z,39.48
2019-06-07T10:03:53.041Z,38.49
2019-06-07T10:04:53.011Z,38.48
2019-06-07T10:05:53.771Z,39.37
2019-06-07T10:06:53.006Z,39.26
2019-06-07T10:08:09.734Z,38.48
2019-06-07T10:10:04.702Z,38.28
2019-06-07T10:10:17.371Z,38.68
2019-06-07T10:10:53.976Z,37.79
2019-06-07T10:11:52.956Z,38.87
2019-06-07T10:12:52.937Z,38.97
2019-06-07T10:13:52.963Z,39.66
2019-06-07T10:14:52.915Z,39.37
2019-06-07T10:15:53.717Z,39.26
2019-06-07T10:16:52.895Z,38.58
2019-06-07T10:17:52.885Z,38.68
2019-06-07T10:18:52.874Z,39.28
2019-06-07T10:19:52.885Z,39.78
2019-06-07T10:20:52.853Z,39.28
2019-06-07T10:21:52.856Z,39.78
2019-06-07T10:22:52.833Z,40.16
2019-06-07T10:23:52.816Z,39.17
2019-06-07T10:24:52.860Z,39.56
2019-06-07T10:25:52.800Z,39.37
2019-06-07T10:26:52.797Z,39.07
2019-06-07T10:27:52.785Z,38.01
2019-06-07T10:28:53.662Z,38.79
2019-06-07T10:29:52.766Z,38.87
2019-06-07T10:31:04.488Z,39.76
2019-06-07T10:31:52.763Z,38.68
2019-06-07T10:32:52.736Z,40.25
2019-06-07T10:33:52.713Z,40.13
2019-06-07T10:34:52.716Z,40.13
2019-06-07T10:35:52.694Z,39.05
2019-06-07T10:36:52.717Z,37.67
2019-06-07T10:37:52.705Z,38.17
2019-06-07T10:38:52.653Z,37.48
2019-06-07T10:39:52.653Z,37.57
2019-06-07T10:40:52.653Z,37.87
2019-06-07T10:41:54.138Z,37.87
2019-06-07T10:42:52.626Z,37.08
2019-06-07T10:43:52.604Z,37.67
2019-06-07T10:44:52.617Z,37.07
2019-06-07T10:45:52.594Z,37.85
2019-06-07T10:46:52.600Z,38.24
2019-06-07T10:47:52.587Z,37.46
2019-06-07T10:48:52.621Z,36.38
2019-06-07T10:49:52.557Z,36.08
2019-06-07T10:50:52.683Z,37.46
2019-06-07T10:51:52.548Z,36.38
2019-06-07T10:52:52.526Z,36.77
2019-06-07T10:53:52.519Z,38.44
2019-06-07T10:54:52.506Z,36.38
2019-06-07T10:55:52.498Z,36.57
2019-06-07T10:56:52.507Z,35.28
2019-06-07T10:57:52.470Z,35.30
2019-06-07T10:58:52.466Z,36.38
2019-06-07T10:59:52.445Z,35.49
2019-06-07T11:00:52.446Z,34.90
2019-06-07T11:02:03.498Z,35.88
2019-06-07T11:02:55.071Z,36.85
2019-06-07T11:03:52.416Z,37.44
2019-06-07T11:04:52.397Z,37.54
2019-06-07T11:05:52.441Z,36.65
2019-06-07T11:06:52.385Z,37.34
2019-06-07T11:07:52.386Z,38.72
2019-06-07T11:08:52.359Z,35.85
2019-06-07T11:10:06.123Z,37.42
2019-06-07T11:10:53.348Z,37.42
2019-06-07T11:11:52.398Z,36.65
2019-06-07T11:12:52.317Z,36.75
2019-06-07T11:13:52.628Z,37.15
2019-06-07T11:14:52.297Z,38.82
2019-06-07T11:15:52.289Z,37.63
2019-06-07T11:16:52.289Z,37.54
2019-06-07T11:17:52.289Z,37.34
2019-06-07T11:18:52.288Z,38.72
2019-06-07T11:19:52.260Z,37.93
2019-06-07T11:20:52.236Z,37.23
2019-06-07T11:21:52.219Z,36.74
2019-06-07T11:22:52.230Z,36.05
2019-06-07T11:23:52.222Z,37.13
2019-06-07T11:24:52.210Z,37.92
2019-06-07T11:25:52.190Z,37.23
2019-06-07T11:26:52.179Z,37.44
2019-06-07T11:27:52.172Z,36.15
2019-06-07T11:28:52.174Z,38.01
2019-06-07T11:29:52.147Z,38.40
2019-06-07T11:30:52.271Z,37.42
2019-06-07T11:31:52.201Z,38.31
2019-06-07T11:33:02.795Z,37.82
2019-06-07T11:33:52.218Z,35.85
2019-06-07T11:34:52.111Z,37.92
2019-06-07T11:35:52.093Z,37.90
2019-06-07T11:36:52.071Z,37.23
2019-06-07T11:37:52.071Z,37.92
2019-06-07T11:38:52.052Z,37.82
2019-06-07T11:39:52.092Z,38.21
2019-06-07T11:40:52.042Z,37.62
2019-06-07T11:41:52.024Z,38.70
2019-06-07T11:42:52.859Z,37.34
2019-06-07T11:43:52.004Z,36.85
2019-06-07T11:44:56.678Z,38.13
2019-06-07T11:45:53.022Z,38.21
2019-06-07T11:46:51.984Z,36.93
2019-06-07T11:47:52.001Z,38.58
2019-06-07T11:48:51.942Z,36.91
2019-06-07T11:49:51.950Z,36.72
2019-06-07T11:50:51.935Z,37.99
2019-06-07T11:51:51.932Z,36.42
2019-06-07T11:52:51.914Z,37.30
2019-06-07T11:53:51.893Z,38.46
2019-06-07T11:54:51.929Z,36.90
2019-06-07T11:55:51.925Z,38.07
2019-06-07T11:56:51.892Z,35.91
2019-06-07T11:57:51.866Z,36.72
2019-06-07T11:58:51.855Z,37.80
2019-06-07T11:59:51.833Z,39.07
2019-06-07T12:00:51.846Z,37.30
2019-06-07T12:01:51.824Z,37.90
2019-06-07T12:02:51.813Z,37.70
2019-06-07T12:04:03.182Z,38.68
2019-06-07T12:04:51.799Z,37.30
2019-06-07T12:05:51.775Z,36.13
2019-06-07T12:06:51.788Z,38.88
2019-06-07T12:07:51.760Z,38.09
2019-06-07T12:08:51.761Z,37.23
2019-06-07T12:09:56.284Z,36.44
2019-06-07T12:10:52.741Z,38.50
2019-06-07T12:11:51.729Z,38.68
2019-06-07T12:12:51.711Z,37.03
2019-06-07T12:13:51.699Z,38.31
2019-06-07T12:14:51.708Z,38.31
2019-06-07T12:15:51.691Z,38.60
2019-06-07T12:16:51.672Z,37.23
2019-06-07T12:17:51.709Z,37.70
2019-06-07T12:18:51.651Z,37.72
2019-06-07T12:19:51.650Z,38.31
2019-06-07T12:20:51.629Z,37.60
2019-06-07T12:21:51.619Z,36.63
2019-06-07T12:22:51.640Z,37.70
2019-06-07T12:23:51.611Z,36.62
2019-06-07T12:24:51.635Z,38.78
2019-06-07T12:25:51.598Z,39.66
2019-06-07T12:26:51.613Z,39.66
2019-06-07T12:27:51.638Z,36.52
2019-06-07T12:28:51.559Z,37.80
2019-06-07T12:29:51.545Z,37.11
2019-06-07T12:30:54.507Z,38.58
2019-06-07T12:31:51.534Z,37.23
2019-06-07T12:32:51.516Z,36.83
2019-06-07T12:33:51.678Z,36.54
2019-06-07T12:35:01.367Z,38.11
2019-06-07T12:35:51.495Z,38.90
2019-06-07T12:36:51.469Z,38.80
2019-06-07T12:37:51.452Z,40.06
2019-06-07T12:38:51.454Z,37.32
2019-06-07T12:39:51.448Z,38.40
2019-06-07T12:40:57.444Z,39.39
2019-06-07T12:41:52.434Z,38.80
2019-06-07T12:42:51.431Z,39.58
2019-06-07T12:43:51.396Z,39.78
2019-06-07T12:44:51.389Z,39.98
2019-06-07T12:45:51.438Z,39.29
2019-06-07T12:46:51.368Z,38.50
2019-06-07T12:47:51.359Z,39.19
2019-06-07T12:48:51.366Z,39.60
2019-06-07T12:49:51.357Z,38.52
2019-06-07T12:50:51.326Z,37.74
2019-06-07T12:51:51.317Z,38.01
2019-06-07T12:52:51.652Z,38.72
2019-06-07T12:53:51.310Z,39.78
2019-06-07T12:54:51.288Z,39.11
2019-06-07T12:55:51.280Z,39.70
2019-06-07T12:56:52.424Z,38.62
2019-06-07T12:57:51.286Z,37.54
2019-06-07T12:58:51.251Z,39.50
2019-06-07T12:59:51.241Z,39.80
2019-06-07T13:00:51.246Z,39.01
2019-06-07T13:01:51.222Z,39.40
2019-06-07T13:02:51.229Z,39.92
2019-06-07T13:03:51.204Z,40.11
2019-06-07T13:04:51.233Z,39.23
2019-06-07T13:06:01.074Z,38.44
2019-06-07T13:06:51.163Z,39.72
2019-06-07T13:07:51.158Z,39.90
2019-06-07T13:08:51.158Z,38.64
2019-06-07T13:09:51.134Z,37.93
2019-06-07T13:10:51.157Z,39.62
2019-06-07T13:11:51.119Z,39.13
2019-06-07T13:12:51.096Z,39.42
2019-06-07T13:13:51.104Z,39.03
2019-06-07T13:14:51.097Z,39.62
2019-06-07T13:15:51.077Z,39.23
2019-06-07T13:16:51.083Z,39.92
2019-06-07T13:17:51.071Z,40.61
2019-06-07T13:18:51.036Z,39.03
2019-06-07T13:19:51.052Z,39.82
2019-06-07T13:20:55.209Z,39.72
2019-06-07T13:21:51.027Z,39.13
2019-06-07T13:22:51.007Z,39.03
2019-06-07T13:23:51.528Z,39.32
2019-06-07T13:24:50.997Z,38.54
2019-06-07T13:25:50.987Z,36.97
2019-06-07T13:26:50.987Z,37.36
2019-06-07T13:27:50.974Z,38.34
2019-06-07T13:28:51.004Z,39.42